Time;durP1;ratioP1;P1;durP2;ratioP2;P2;SDS_P1;SDS_P2;PMS_P1;PMS_P2;Temp;Humidity;BMP_temperature;BMP_pressure;BME280_temperature;BME280_humidity;BME280_pressure;Samples;Min_cycle;Max_cycle;Signal;HPM_P1;HPM_P2
2021/05/09 00:01:07;;;;;;;2.03;1.90;;;13.40;99.90;;;;;;4980456;28;20201;-68
2021/05/09 00:03:33;;;;;;;2.27;2.10;;;13.40;99.90;;;;;;4991216;28;20166;-68
2021/05/09 00:05:58;;;;;;;2.77;2.10;;;13.40;99.90;;;;;;4990726;28;20197;-68
2021/05/09 00:08:24;;;;;;;4.10;2.50;;;13.30;99.90;;;;;;4991260;28;20272;-68
2021/05/09 00:10:49;;;;;;;4.83;1.87;;;13.40;99.90;;;;;;4990901;28;20209;-68
2021/05/09 00:13:15;;;;;;;3.00;1.70;;;13.40;99.90;;;;;;4991166;28;20585;-68
2021/05/09 00:15:42;;;;;;;2.77;1.70;;;13.40;99.90;;;;;;4989873;28;20620;-68
2021/05/09 00:18:08;;;;;;;2.50;2.30;;;13.40;99.90;;;;;;4976583;28;20259;-68
2021/05/09 00:20:33;;;;;;;2.53;2.33;;;13.40;99.90;;;;;;4991083;28;20448;-68
2021/05/09 00:22:59;;;;;;;3.50;2.17;;;13.40;99.90;;;;;;4990799;28;20576;-68
2021/05/09 00:25:25;;;;;;;2.43;2.10;;;13.30;99.90;;;;;;4990920;28;20409;-68
2021/05/09 00:27:50;;;;;;;3.97;2.37;;;13.30;99.90;;;;;;4990807;28;20178;-68
2021/05/09 00:30:18;;;;;;;3.40;2.10;;;13.30;99.90;;;;;;4990990;28;20529;-68
2021/05/09 00:32:44;;;;;;;3.80;2.33;;;13.30;99.90;;;;;;4989726;28;20198;-68
2021/05/09 00:35:10;;;;;;;2.37;2.07;;;13.20;99.90;;;;;;4971406;28;20456;-68
2021/05/09 00:37:36;;;;;;;3.57;2.40;;;13.20;99.90;;;;;;4986667;28;20171;-68
2021/05/09 00:40:02;;;;;;;2.77;2.10;;;13.10;99.90;;;;;;4990830;28;20904;-68
2021/05/09 00:42:28;;;;;;;2.83;2.03;;;13.00;99.90;;;;;;4990808;28;20167;-68
2021/05/09 00:44:53;;;;;;;4.27;2.10;;;13.00;99.90;;;;;;4990794;28;20499;-68
2021/05/09 00:47:19;;;;;;;4.40;2.50;;;13.00;99.90;;;;;;4990248;28;20665;-68
2021/05/09 00:49:44;;;;;;;2.30;2.10;;;12.90;99.90;;;;;;4989914;28;20165;-68
2021/05/09 00:52:11;;;;;;;2.30;2.10;;;13.00;99.90;;;;;;4978910;28;20289;-68
2021/05/09 00:54:44;;;;;;;2.47;2.20;;;13.00;99.90;;;;;;4990596;28;20158;-68
2021/05/09 00:57:12;;;;;;;5.13;2.17;;;13.10;99.90;;;;;;4990487;28;20413;-68
2021/05/09 00:59:42;;;;;;;4.07;2.50;;;13.10;99.90;;;;;;4990548;28;20440;-68
2021/05/09 01:02:08;;;;;;;5.03;2.10;;;13.00;99.90;;;;;;4990253;28;20417;-68
2021/05/09 01:04:34;;;;;;;5.73;2.17;;;13.00;99.90;;;;;;4990504;28;20755;-68
2021/05/09 01:07:01;;;;;;;2.50;1.67;;;13.00;99.90;;;;;;4987226;28;20425;-68
2021/05/09 01:09:26;;;;;;;3.23;1.90;;;13.00;99.90;;;;;;4970965;28;20488;-68
2021/05/09 01:11:52;;;;;;;2.60;2.40;;;13.00;99.90;;;;;;4976322;28;20488;-68
2021/05/09 01:14:17;;;;;;;2.40;2.20;;;13.00;99.90;;;;;;4993509;28;20669;-68
2021/05/09 01:16:44;;;;;;;2.30;2.10;;;12.90;99.90;;;;;;4993293;28;20166;-68
2021/05/09 01:19:09;;;;;;;2.40;2.20;;;12.90;99.90;;;;;;4993152;28;20510;-68
2021/05/09 01:21:35;;;;;;;2.80;2.10;;;12.90;99.90;;;;;;4993629;28;20404;-68
2021/05/09 01:24:01;;;;;;;2.27;2.07;;;12.90;99.90;;;;;;4992916;28;20182;-68
2021/05/09 01:26:26;;;;;;;2.90;2.17;;;12.80;99.90;;;;;;4993337;28;20471;-68
2021/05/09 01:28:52;;;;;;;2.60;2.23;;;12.80;99.90;;;;;;4993618;28;20563;-68
2021/05/09 01:31:18;;;;;;;2.67;2.47;;;12.80;99.90;;;;;;4993362;28;20305;-68
2021/05/09 01:33:44;;;;;;;3.33;2.17;;;12.80;99.90;;;;;;4993614;28;20607;-68
2021/05/09 01:36:09;;;;;;;4.70;2.33;;;12.70;99.90;;;;;;4993259;28;20177;-68
2021/05/09 01:38:35;;;;;;;2.20;2.00;;;12.70;99.90;;;;;;4993182;28;20653;-68
2021/05/09 01:41:00;;;;;;;4.07;2.27;;;12.60;99.90;;;;;;4990544;28;20174;-68
2021/05/09 01:43:26;;;;;;;2.77;2.50;;;12.60;99.90;;;;;;4991933;28;20215;-68
2021/05/09 01:45:51;;;;;;;2.50;2.30;;;12.60;99.90;;;;;;4993394;28;20162;-68
2021/05/09 01:48:17;;;;;;;2.40;2.20;;;12.60;99.90;;;;;;4992891;28;20193;-68
2021/05/09 01:50:43;;;;;;;3.83;2.87;;;12.60;99.90;;;;;;4993152;28;20186;-68
2021/05/09 01:53:08;;;;;;;2.60;2.40;;;12.60;99.90;;;;;;4993093;28;20198;-68
2021/05/09 01:55:34;;;;;;;4.00;2.30;;;12.50;99.90;;;;;;4993493;28;20163;-68
2021/05/09 01:57:59;;;;;;;3.10;2.63;;;12.50;99.90;;;;;;4990064;28;20186;-68
2021/05/09 02:00:25;;;;;;;3.20;2.20;;;12.40;99.90;;;;;;4976473;28;20636;-68
2021/05/09 02:02:51;;;;;;;3.60;2.20;;;12.50;99.90;;;;;;4992747;28;20178;-68
2021/05/09 02:05:18;;;;;;;4.13;2.43;;;12.50;99.90;;;;;;4993042;28;20402;-68
2021/05/09 02:07:43;;;;;;;2.63;2.43;;;12.50;99.90;;;;;;4992928;28;20544;-68
2021/05/09 02:10:10;;;;;;;4.40;2.47;;;12.50;99.90;;;;;;4993284;28;20460;-68
2021/05/09 02:12:37;;;;;;;2.10;1.90;;;12.50;99.90;;;;;;4992601;28;20197;-68
2021/05/09 02:15:05;;;;;;;6.70;2.37;;;12.40;99.90;;;;;;4990121;28;20887;-71
2021/05/09 02:17:31;;;;;;;2.63;2.00;;;12.40;99.90;;;;;;4983945;28;20421;-70
2021/05/09 02:19:56;;;;;;;2.47;2.27;;;12.40;99.90;;;;;;4993383;28;20386;-68
2021/05/09 02:22:22;;;;;;;3.20;2.17;;;12.40;99.90;;;;;;4992593;28;20181;-68
2021/05/09 02:24:48;;;;;;;3.00;2.50;;;12.30;99.90;;;;;;4992566;28;20178;-68
2021/05/09 02:27:13;;;;;;;2.73;2.17;;;12.30;99.90;;;;;;4992953;28;20178;-68
2021/05/09 02:29:39;;;;;;;3.07;2.27;;;12.20;99.90;;;;;;4992624;28;20174;-68
2021/05/09 02:32:05;;;;;;;2.73;2.17;;;12.20;99.90;;;;;;4988859;28;20195;-68
2021/05/09 02:34:32;;;;;;;2.30;2.10;;;12.20;99.90;;;;;;4973214;28;20187;-68
2021/05/09 02:36:57;;;;;;;4.20;2.73;;;12.10;99.90;;;;;;4979196;28;20782;-68
2021/05/09 02:39:23;;;;;;;3.63;3.20;;;12.10;99.90;;;;;;4992812;28;20480;-68
2021/05/09 02:41:49;;;;;;;3.03;2.70;;;12.10;99.90;;;;;;4992560;28;20253;-68
2021/05/09 02:44:14;;;;;;;2.67;2.47;;;12.10;99.90;;;;;;4992588;28;20202;-67
2021/05/09 02:46:40;;;;;;;2.70;2.50;;;12.00;99.90;;;;;;4992062;28;20182;-68
2021/05/09 02:49:06;;;;;;;3.10;2.80;;;12.00;99.90;;;;;;4988726;28;20196;-68
2021/05/09 02:51:31;;;;;;;4.10;2.60;;;12.00;99.90;;;;;;4975104;28;20270;-68
2021/05/09 02:53:57;;;;;;;3.40;2.33;;;12.00;99.90;;;;;;4992668;28;20170;-67
2021/05/09 02:56:22;;;;;;;3.13;2.93;;;12.00;99.90;;;;;;4993018;28;20525;-68
2021/05/09 02:58:48;;;;;;;3.63;2.30;;;11.90;99.90;;;;;;4992203;28;20193;-68
2021/05/09 03:01:13;;;;;;;2.80;2.50;;;11.90;99.90;;;;;;4991974;28;20159;-67
2021/05/09 03:03:39;;;;;;;2.47;2.27;;;11.90;99.90;;;;;;4990799;28;20180;-68
2021/05/09 03:06:05;;;;;;;2.93;2.47;;;11.90;99.90;;;;;;4988673;28;20525;-68
2021/05/09 03:08:30;;;;;;;5.07;2.67;;;12.00;99.90;;;;;;4991094;28;20188;-68
2021/05/09 03:10:56;;;;;;;2.63;1.90;;;12.00;99.90;;;;;;4992470;28;20655;-68
2021/05/09 03:13:21;;;;;;;7.23;2.60;;;12.00;99.90;;;;;;4991709;28;20232;-68
2021/05/09 03:15:47;;;;;;;3.43;2.20;;;12.00;99.90;;;;;;4991991;28;20166;-68
2021/05/09 03:18:12;;;;;;;2.43;2.23;;;12.10;99.90;;;;;;4991779;28;20170;-68
2021/05/09 03:20:38;;;;;;;3.77;2.50;;;12.20;99.90;;;;;;4992011;28;20147;-67
2021/05/09 03:23:05;;;;;;;4.37;2.60;;;12.20;99.90;;;;;;4988229;28;20190;-68
2021/05/09 03:25:31;;;;;;;2.57;2.37;;;12.20;99.90;;;;;;4990207;28;20645;-68
2021/05/09 03:27:56;;;;;;;2.50;2.30;;;12.20;99.90;;;;;;4991390;28;20425;-67
2021/05/09 03:30:22;;;;;;;4.37;2.80;;;12.20;99.90;;;;;;4991951;28;20189;-68
2021/05/09 03:32:47;;;;;;;4.43;2.27;;;12.20;99.90;;;;;;4991397;28;20206;-68
2021/05/09 03:35:13;;;;;;;2.70;2.20;;;12.20;99.90;;;;;;4990803;28;20561;-68
2021/05/09 03:37:39;;;;;;;2.67;2.47;;;12.20;99.90;;;;;;4991372;28;20170;-68
2021/05/09 03:40:07;;;;;;;2.90;2.60;;;12.10;99.90;;;;;;4988384;28;20197;-68
2021/05/09 03:42:32;;;;;;;3.33;2.37;;;12.10;99.90;;;;;;4984708;28;20178;-67
2021/05/09 03:44:58;;;;;;;3.73;2.37;;;12.10;99.90;;;;;;4991556;28;20393;-68
2021/05/09 03:47:27;;;;;;;2.90;2.10;;;12.10;99.90;;;;;;4991247;28;20611;-68
2021/05/09 03:49:53;;;;;;;4.00;2.80;;;12.20;99.90;;;;;;4991639;28;20219;-68
2021/05/09 03:52:19;;;;;;;3.33;2.80;;;12.10;99.90;;;;;;4991311;28;20852;-68
2021/05/09 03:54:45;;;;;;;2.80;2.53;;;12.20;99.90;;;;;;4991269;28;20427;-68
2021/05/09 03:57:10;;;;;;;4.17;2.93;;;12.10;99.90;;;;;;4987228;28;20189;-68
2021/05/09 03:59:36;;;;;;;2.60;2.37;;;12.10;99.90;;;;;;4984442;28;20201;-67
2021/05/09 04:02:01;;;;;;;3.57;2.50;;;12.10;99.90;;;;;;4991417;28;20656;-68
2021/05/09 04:04:27;;;;;;;2.00;1.80;;;12.10;99.90;;;;;;4992773;28;20165;-68
2021/05/09 04:06:52;;;;;;;3.13;2.43;;;12.10;99.90;;;;;;4991877;28;20224;-68
2021/05/09 04:09:18;;;;;;;2.90;2.10;;;12.10;99.90;;;;;;4991687;28;20174;-68
2021/05/09 04:11:43;;;;;;;2.80;2.50;;;12.10;99.90;;;;;;4990892;28;20198;-67
2021/05/09 04:14:09;;;;;;;4.53;2.00;;;12.10;99.90;;;;;;4987133;28;20183;-68
2021/05/09 04:16:34;;;;;;;2.47;2.20;;;12.10;99.90;;;;;;4976824;28;20540;-68
2021/05/09 04:19:00;;;;;;;2.97;2.30;;;12.10;99.90;;;;;;4991300;28;20157;-68
2021/05/09 04:21:25;;;;;;;3.47;2.33;;;12.10;99.90;;;;;;4992528;28;20174;-68
2021/05/09 04:23:51;;;;;;;2.33;2.13;;;12.10;99.90;;;;;;4991789;28;20174;-68
2021/05/09 04:26:17;;;;;;;3.17;2.40;;;12.00;99.90;;;;;;4990559;28;20161;-68
2021/05/09 04:28:42;;;;;;;3.43;2.53;;;12.00;99.90;;;;;;4991215;28;20191;-68
2021/05/09 04:31:08;;;;;;;3.60;2.53;;;12.00;99.90;;;;;;4989510;28;20665;-68
2021/05/09 04:33:34;;;;;;;3.83;2.60;;;11.90;99.90;;;;;;4991112;28;20248;-68
2021/05/09 04:36:00;;;;;;;3.60;2.90;;;11.90;99.90;;;;;;4992420;28;20181;-68
2021/05/09 04:38:25;;;;;;;3.80;3.00;;;11.90;99.90;;;;;;4991072;28;20480;-68
2021/05/09 04:40:51;;;;;;;4.97;2.60;;;11.80;99.90;;;;;;4990820;28;20197;-68
2021/05/09 04:43:18;;;;;;;5.67;3.10;;;11.80;99.90;;;;;;4990629;28;20170;-68
2021/05/09 04:45:47;;;;;;;3.23;2.90;;;11.80;99.90;;;;;;4990788;28;20175;-67
2021/05/09 04:48:12;;;;;;;4.17;2.80;;;11.80;99.90;;;;;;4985423;28;20437;-68
2021/05/09 04:50:38;;;;;;;4.13;3.00;;;11.80;99.90;;;;;;4972802;28;20521;-68
2021/05/09 04:53:20;;;;;;;4.20;2.40;;;11.80;99.90;;;;;;4988238;28;20254;-68
2021/05/09 04:55:45;;;;;;;3.70;3.40;;;11.80;99.90;;;;;;4990710;28;20163;-68
2021/05/09 04:58:11;;;;;;;3.70;2.70;;;11.70;99.90;;;;;;4990270;28;20495;-68
2021/05/09 05:00:36;;;;;;;3.93;2.77;;;11.80;99.90;;;;;;4990922;28;20156;-68
2021/05/09 05:03:02;;;;;;;4.37;2.63;;;11.80;99.90;;;;;;4990621;28;20181;-68
2021/05/09 05:05:28;;;;;;;2.93;2.63;;;11.80;99.90;;;;;;4989449;28;20218;-68
2021/05/09 05:07:53;;;;;;;3.20;2.87;;;11.80;99.90;;;;;;4990718;28;20719;-68
2021/05/09 05:10:19;;;;;;;2.70;2.17;;;11.80;99.90;;;;;;4990293;28;20656;-68
2021/05/09 05:12:44;;;;;;;3.03;2.73;;;11.90;99.90;;;;;;4990364;28;20226;-68
2021/05/09 05:15:10;;;;;;;2.90;2.67;;;12.00;99.90;;;;;;4990513;28;20640;-67
2021/05/09 05:17:36;;;;;;;4.20;2.83;;;12.10;99.90;;;;;;4990366;28;20185;-68
2021/05/09 05:20:01;;;;;;;2.40;2.20;;;12.10;99.90;;;;;;4991405;28;20409;-68
2021/05/09 05:22:27;;;;;;;2.43;2.23;;;12.30;99.90;;;;;;4983906;28;20178;-68
2021/05/09 05:24:53;;;;;;;2.10;1.90;;;12.30;99.90;;;;;;4970910;28;20253;-68
2021/05/09 05:27:18;;;;;;;2.77;2.53;;;12.50;99.90;;;;;;4979763;28;20214;-68
2021/05/09 05:29:44;;;;;;;4.23;2.93;;;12.60;99.90;;;;;;4990183;28;20158;-68
2021/05/09 05:32:09;;;;;;;2.80;2.60;;;12.70;99.90;;;;;;4990140;28;20194;-68
2021/05/09 05:34:35;;;;;;;2.23;1.77;;;12.80;99.90;;;;;;4991105;28;20174;-68
2021/05/09 05:37:00;;;;;;;3.50;1.83;;;13.00;99.90;;;;;;4990125;28;20204;-68
2021/05/09 05:39:26;;;;;;;2.20;1.93;;;13.30;99.90;;;;;;4984014;28;20171;-68
2021/05/09 05:41:51;;;;;;;3.00;1.83;;;13.60;99.90;;;;;;4984316;28;20209;-68
2021/05/09 05:44:17;;;;;;;2.37;1.53;;;13.90;99.90;;;;;;4990355;28;20182;-68
2021/05/09 05:46:43;;;;;;;3.00;2.17;;;14.00;99.90;;;;;;4989685;28;20289;-68
2021/05/09 05:49:08;;;;;;;3.00;1.67;;;14.20;99.90;;;;;;4990981;28;20174;-68
2021/05/09 05:51:34;;;;;;;2.30;2.00;;;14.30;99.90;;;;;;4989451;28;20202;-68
2021/05/09 05:53:59;;;;;;;2.27;1.80;;;14.50;99.90;;;;;;4990293;28;20174;-68
2021/05/09 05:56:25;;;;;;;1.67;1.53;;;14.60;99.90;;;;;;4985722;28;20182;-68
2021/05/09 05:58:52;;;;;;;2.03;1.70;;;14.70;99.90;;;;;;4990966;28;20686;-68
2021/05/09 06:01:18;;;;;;;2.30;1.50;;;14.70;99.90;;;;;;4993144;28;20394;-68
2021/05/09 06:03:44;;;;;;;2.13;1.93;;;14.80;99.90;;;;;;4994004;28;20424;-68
2021/05/09 06:06:09;;;;;;;3.37;1.83;;;14.90;99.90;;;;;;4993264;28;20421;-68
2021/05/09 06:08:35;;;;;;;5.47;1.87;;;15.00;99.90;;;;;;4993346;28;20545;-68
2021/05/09 06:11:01;;;;;;;2.07;1.87;;;15.20;99.90;;;;;;4993173;28;20182;-68
2021/05/09 06:13:27;;;;;;;2.17;1.60;;;15.20;99.90;;;;;;4986408;28;20539;-68
2021/05/09 06:15:53;;;;;;;4.90;1.80;;;15.20;99.90;;;;;;4973815;28;20182;-68
2021/05/09 06:18:19;;;;;;;3.43;1.87;;;15.20;99.90;;;;;;4991831;28;20418;-68
2021/05/09 06:20:45;;;;;;;4.07;2.13;;;15.40;99.90;;;;;;4992990;28;20162;-68
2021/05/09 06:23:11;;;;;;;2.23;1.70;;;15.60;99.90;;;;;;4992661;28;20429;-68
2021/05/09 06:25:37;;;;;;;2.70;1.50;;;15.80;99.90;;;;;;4992873;28;20165;-68
2021/05/09 06:28:04;;;;;;;3.33;1.60;;;16.00;99.90;;;;;;4992505;28;20177;-68
2021/05/09 06:30:29;;;;;;;1.50;1.37;;;16.20;99.90;;;;;;4986181;28;20418;-68
2021/05/09 06:32:55;;;;;;;1.80;1.60;;;16.30;99.90;;;;;;4988012;28;20479;-68
2021/05/09 06:35:21;;;;;;;2.30;1.43;;;16.50;99.90;;;;;;4992805;28;20637;-68
2021/05/09 06:37:50;;;;;;;2.10;1.70;;;16.60;99.90;;;;;;4992857;28;20227;-68
2021/05/09 06:40:17;;;;;;;1.33;1.20;;;16.60;99.90;;;;;;4992864;28;20432;-68
2021/05/09 06:42:42;;;;;;;2.17;1.67;;;16.70;99.90;;;;;;4992497;28;20437;-68
2021/05/09 06:45:15;;;;;;;5.17;1.67;;;16.80;99.90;;;;;;4992821;28;20439;-68
2021/05/09 06:47:41;;;;;;;1.83;1.20;;;16.90;99.90;;;;;;4985054;28;20187;-68
2021/05/09 06:50:07;;;;;;;1.87;1.73;;;17.00;99.90;;;;;;4973208;28;20413;-68
2021/05/09 06:52:32;;;;;;;3.50;1.40;;;17.10;99.90;;;;;;4983701;28;20213;-68
2021/05/09 06:55:01;;;;;;;2.67;2.00;;;17.20;99.90;;;;;;4992286;28;20934;-68
2021/05/09 06:57:27;;;;;;;1.93;1.40;;;17.30;99.90;;;;;;4992552;28;20240;-68
2021/05/09 06:59:52;;;;;;;1.93;1.67;;;17.40;99.90;;;;;;4992312;28;20929;-68
2021/05/09 07:02:18;;;;;;;1.60;1.50;;;17.50;99.90;;;;;;4993215;28;20205;-68
2021/05/09 07:04:43;;;;;;;1.57;1.47;;;17.70;99.90;;;;;;4983522;28;20248;-68
2021/05/09 07:07:09;;;;;;;1.97;1.10;;;17.80;99.90;;;;;;4980671;28;20189;-68
2021/05/09 07:09:34;;;;;;;2.80;1.53;;;17.90;99.90;;;;;;4992347;28;20524;-68
2021/05/09 07:12:00;;;;;;;1.53;1.43;;;17.90;99.90;;;;;;4992059;28;20533;-68
2021/05/09 07:14:25;;;;;;;4.90;1.70;;;18.10;99.90;;;;;;4992228;28;20166;-68
2021/05/09 07:16:51;;;;;;;3.70;1.50;;;18.20;99.90;;;;;;4992724;28;20638;-68
2021/05/09 07:19:18;;;;;;;1.80;1.70;;;18.30;99.90;;;;;;4992194;28;20169;-68
2021/05/09 07:21:48;;;;;;;1.63;1.53;;;18.50;99.90;;;;;;4987799;28;20240;-68
2021/05/09 07:24:14;;;;;;;2.77;2.03;;;18.80;99.90;;;;;;4992104;28;20423;-68
2021/05/09 07:26:39;;;;;;;2.10;1.53;;;19.00;99.90;;;;;;4991834;28;20838;-68
2021/05/09 07:29:05;;;;;;;2.10;1.53;;;19.30;98.90;;;;;;4992524;28;20185;-68
2021/05/09 07:31:32;;;;;;;2.73;1.40;;;19.40;98.30;;;;;;4992015;28;20338;-68
2021/05/09 07:33:58;;;;;;;1.77;1.67;;;19.80;97.50;;;;;;4992129;28;20291;-68
2021/05/09 07:36:23;;;;;;;2.30;1.50;;;20.50;95.80;;;;;;4991594;28;20825;-68
2021/05/09 07:38:49;;;;;;;2.23;1.67;;;21.30;93.10;;;;;;4982425;28;20841;-68
2021/05/09 07:41:14;;;;;;;5.30;1.57;;;22.00;90.90;;;;;;4974766;28;20178;-67
2021/05/09 07:43:40;;;;;;;4.00;1.67;;;22.70;85.30;;;;;;4992262;28;20174;-68
2021/05/09 07:46:06;;;;;;;2.67;1.60;;;23.60;78.30;;;;;;4991603;28;20161;-67
2021/05/09 07:48:31;;;;;;;5.73;1.93;;;24.40;72.20;;;;;;4992206;28;20645;-68
2021/05/09 07:50:59;;;;;;;2.90;1.60;;;25.10;67.40;;;;;;4991353;28;20242;-68
2021/05/09 07:53:25;;;;;;;1.83;1.67;;;25.60;63.20;;;;;;4972227;28;20163;-66
2021/05/09 07:55:50;;;;;;;1.43;1.10;;;25.70;60.50;;;;;;4972697;28;20432;-65
2021/05/09 07:58:18;;;;;;;2.13;1.27;;;26.10;59.00;;;;;;4991117;28;20646;-66
2021/05/09 08:00:44;;;;;;;1.43;1.33;;;26.40;58.00;;;;;;4991759;28;20190;-66
2021/05/09 08:03:10;;;;;;;2.03;1.63;;;26.60;56.50;;;;;;4991111;28;20523;-66
2021/05/09 08:05:35;;;;;;;2.20;1.67;;;26.80;55.50;;;;;;4991472;28;20405;-67
2021/05/09 08:08:01;;;;;;;2.40;1.83;;;27.30;55.20;;;;;;4991158;28;20189;-67
2021/05/09 08:10:27;;;;;;;1.53;1.40;;;28.00;53.50;;;;;;4991232;28;20631;-67
2021/05/09 08:12:54;;;;;;;2.03;1.50;;;28.50;52.40;;;;;;4980961;28;20267;-67
2021/05/09 08:15:22;;;;;;;12.53;1.60;;;29.00;51.30;;;;;;4972146;28;20410;-67
2021/05/09 08:17:48;;;;;;;1.63;1.40;;;29.60;50.10;;;;;;4986401;28;20418;-67
2021/05/09 08:20:15;;;;;;;2.37;1.90;;;30.30;47.60;;;;;;4991211;28;20406;-67
2021/05/09 08:22:41;;;;;;;1.67;1.30;;;31.00;46.50;;;;;;4990595;28;20428;-67
2021/05/09 08:25:08;;;;;;;2.80;1.63;;;31.70;44.60;;;;;;4991140;28;20398;-67
2021/05/09 08:27:34;;;;;;;1.83;1.20;;;32.30;43.40;;;;;;4991076;28;20189;-68
2021/05/09 08:30:03;;;;;;;1.67;1.30;;;33.00;41.10;;;;;;4980185;28;20466;-68
2021/05/09 08:32:28;;;;;;;1.47;1.30;;;33.70;40.20;;;;;;4982015;28;20441;-68
2021/05/09 08:34:55;;;;;;;2.47;1.53;;;34.20;38.40;;;;;;4990725;28;20443;-68
2021/05/09 08:37:20;;;;;;;1.67;1.27;;;34.70;36.80;;;;;;4990774;28;20170;-68
2021/05/09 08:39:46;;;;;;;1.70;1.60;;;34.40;36.10;;;;;;4990794;28;20467;-68
2021/05/09 08:42:16;;;;;;;3.53;1.60;;;33.60;36.60;;;;;;4990929;28;20178;-68
2021/05/09 08:44:45;;;;;;;3.10;1.50;;;33.70;37.00;;;;;;4991134;28;20650;-68
2021/05/09 08:47:12;;;;;;;3.10;1.30;;;33.60;37.10;;;;;;4987787;28;20917;-68
2021/05/09 08:49:41;;;;;;;1.80;1.70;;;34.30;36.70;;;;;;4990846;28;20465;-68
2021/05/09 08:52:09;;;;;;;2.23;1.33;;;35.00;35.70;;;;;;4990438;28;21005;-68
2021/05/09 08:54:35;;;;;;;1.60;1.20;;;34.80;34.40;;;;;;4990858;28;20393;-68
2021/05/09 08:57:02;;;;;;;3.17;1.80;;;34.70;35.90;;;;;;4991047;28;20747;-68
2021/05/09 08:59:28;;;;;;;1.60;1.23;;;35.30;34.70;;;;;;4990716;28;20190;-68
2021/05/09 09:01:55;;;;;;;1.40;1.30;;;35.50;34.40;;;;;;4990604;28;20471;-68
2021/05/09 09:04:20;;;;;;;1.37;1.27;;;36.00;33.20;;;;;;4977124;28;20189;-68
2021/05/09 09:06:46;;;;;;;2.50;1.30;;;35.40;34.00;;;;;;4986158;28;20421;-68
2021/05/09 09:09:21;;;;;;;1.57;1.23;;;35.00;34.30;;;;;;4990820;28;20197;-68
2021/05/09 09:11:50;;;;;;;1.80;1.57;;;34.30;34.80;;;;;;4990590;28;20197;-68
2021/05/09 09:14:16;;;;;;;2.00;1.47;;;33.60;36.00;;;;;;4990268;28;20429;-68
2021/05/09 09:16:42;;;;;;;4.00;1.60;;;33.70;36.80;;;;;;4990354;28;21038;-68
2021/05/09 09:19:10;;;;;;;4.10;1.33;;;33.30;36.70;;;;;;4990581;28;20159;-68
2021/05/09 09:21:37;;;;;;;1.63;1.53;;;32.30;39.20;;;;;;4978178;28;20174;-68
2021/05/09 09:24:06;;;;;;;3.00;1.57;;;32.20;39.40;;;;;;4990651;28;20401;-68
2021/05/09 09:29:36;;;;;;;5.60;1.70;;;32.10;39.70;;;;;;5088598;28;20552;-68
2021/05/09 09:32:09;;;;;;;3.43;1.30;;;30.80;41.20;;;;;;5070330;28;20437;-68
2021/05/09 09:37:16;;;;;;;3.23;1.57;;;30.40;43.10;;;;;;5095901;27;20514;-69
2021/05/09 09:42:44;;;;;;;1.73;1.60;;;29.80;43.40;;;;;;5089159;28;20519;-67
2021/05/09 09:47:53;;;;;;;1.70;1.60;;;29.70;43.80;;;;;;5075047;27;20523;-68
2021/05/09 09:53:29;;;;;;;1.73;1.40;;;29.40;44.30;;;;;;5106820;27;20576;-68
2021/05/09 10:04:08;;;;;;;2.07;1.80;;;28.30;46.10;;;;;;5090483;28;20921;-68
2021/05/09 10:06:35;;;;;;;2.10;1.90;;;28.00;46.40;;;;;;5089877;28;20524;-68
2021/05/09 10:09:01;;;;;;;2.20;1.50;;;27.80;47.30;;;;;;5091896;28;20484;-68
2021/05/09 10:11:28;;;;;;;3.83;2.20;;;27.80;47.70;;;;;;5084913;28;20428;-68
2021/05/09 10:13:55;;;;;;;2.60;2.10;;;27.70;47.20;;;;;;5070576;28;20469;-68
2021/05/09 10:16:22;;;;;;;1.77;1.67;;;27.70;47.30;;;;;;5070556;28;20435;-68
2021/05/09 10:18:53;;;;;;;6.60;2.10;;;27.60;47.80;;;;;;5070261;28;20391;-68
2021/05/09 10:21:26;;;;;;;3.27;2.77;;;27.40;47.50;;;;;;5070808;28;20394;-68
2021/05/09 10:24:21;;;;;;;3.10;2.17;;;27.30;48.20;;;;;;5079672;28;20556;-68
2021/05/09 10:56:27;;;;;;;2.60;2.40;;;26.10;50.50;;;;;;5131271;27;20934;-69
2021/05/09 10:58:54;;;;;;;2.93;1.73;;;25.60;51.60;;;;;;5115326;28;20451;-69
2021/05/09 11:01:23;;;;;;;3.97;3.67;;;25.70;51.80;;;;;;5111430;28;20442;-66
2021/05/09 11:03:55;;;;;;;1.80;1.70;;;25.70;51.50;;;;;;5094475;28;20409;-68
2021/05/09 11:19:40;;;;;;;3.63;2.03;;;25.90;51.30;;;;;;5040405;28;20511;-68
2021/05/09 11:22:06;;;;;;;1.93;1.40;;;25.90;50.70;;;;;;5020017;28;20412;-68
2021/05/09 11:24:34;;;;;;;2.07;1.30;;;25.90;51.00;;;;;;5007510;28;20422;-68
2021/05/09 11:27:08;;;;;;;2.37;2.17;;;26.00;50.70;;;;;;5013679;28;20469;-68
2021/05/09 11:29:35;;;;;;;1.83;1.70;;;26.00;50.70;;;;;;5027031;28;20903;-68
2021/05/09 11:32:11;;;;;;;3.23;1.70;;;26.10;50.30;;;;;;5020964;28;20846;-68
2021/05/09 11:34:37;;;;;;;1.70;1.60;;;26.10;50.80;;;;;;5007638;28;20471;-68
2021/05/09 11:37:03;;;;;;;2.10;1.90;;;26.00;50.10;;;;;;5019069;28;20415;-68
2021/05/09 11:42:16;;;;;;;5.43;2.10;;;26.20;50.20;;;;;;5089084;27;20572;-68
2021/05/09 11:44:47;;;;;;;4.20;1.80;;;26.20;50.10;;;;;;5090451;28;20381;-68
2021/05/09 11:49:51;;;;;;;2.17;1.97;;;26.30;50.20;;;;;;5091123;28;20648;-68
2021/05/09 11:52:21;;;;;;;2.20;1.90;;;26.40;49.90;;;;;;5079954;28;20409;-68
2021/05/09 11:57:27;;;;;;;3.43;3.13;;;26.30;50.10;;;;;;5099064;27;20515;-68
2021/05/09 11:59:57;;;;;;;4.63;2.33;;;26.20;50.60;;;;;;5091165;28;20424;-68
2021/05/09 12:02:25;;;;;;;2.97;1.90;;;26.10;50.00;;;;;;5090517;28;20431;-68
2021/05/09 12:07:29;;;;;;;1.90;1.80;;;26.00;50.20;;;;;;5109793;27;20517;-68
2021/05/09 12:10:01;;;;;;;4.03;2.30;;;25.80;50.10;;;;;;5071051;28;20451;-68
2021/05/09 12:12:30;;;;;;;2.80;1.77;;;25.80;50.30;;;;;;5070732;28;20398;-68
2021/05/09 12:15:05;;;;;;;5.00;3.40;;;25.70;50.10;;;;;;5110958;28;20413;-68
2021/05/09 12:17:30;;;;;;;3.37;2.30;;;25.70;50.60;;;;;;5110725;28;20406;-68
2021/05/09 12:19:56;;;;;;;3.33;1.83;;;25.70;50.40;;;;;;5090914;28;20957;-68
2021/05/09 12:22:23;;;;;;;3.20;1.40;;;25.70;50.50;;;;;;5090461;28;20189;-68
2021/05/09 12:24:57;;;;;;;2.37;1.70;;;25.60;50.30;;;;;;5090325;28;20155;-68
2021/05/09 12:27:24;;;;;;;1.97;1.80;;;25.60;50.40;;;;;;5083898;28;20452;-68
2021/05/09 12:29:54;;;;;;;3.50;2.70;;;25.50;50.40;;;;;;5070209;28;20405;-68
2021/05/09 12:32:31;;;;;;;2.50;2.07;;;25.60;50.90;;;;;;5080544;28;20409;-68
2021/05/09 12:35:15;;;;;;;4.40;2.30;;;25.50;50.70;;;;;;5090342;28;20393;-68
2021/05/09 12:48:15;;;;;;;1.93;1.73;;;25.50;51.00;;;;;;5111551;27;20516;-69
2021/05/09 12:50:45;;;;;;;2.87;2.37;;;25.50;51.00;;;;;;5111024;28;20468;-68
2021/05/09 12:53:10;;;;;;;1.80;1.50;;;25.50;51.30;;;;;;5110939;28;20951;-69
2021/05/09 12:55:36;;;;;;;3.20;2.47;;;25.40;51.20;;;;;;5111101;28;20483;-69
2021/05/09 12:58:11;;;;;;;2.47;1.60;;;25.40;51.90;;;;;;5110971;28;20169;-69
2021/05/09 13:00:37;;;;;;;3.13;1.40;;;25.30;51.80;;;;;;5090562;28;20154;-69
2021/05/09 13:03:03;;;;;;;5.40;3.37;;;25.50;51.40;;;;;;5086172;28;20412;-69
2021/05/09 13:05:29;;;;;;;5.23;1.67;;;25.50;50.90;;;;;;5089821;28;20405;-69
2021/05/09 13:07:54;;;;;;;2.97;1.80;;;25.50;51.30;;;;;;5089911;28;20198;-69
2021/05/09 13:10:22;;;;;;;4.47;3.67;;;25.60;51.00;;;;;;5089959;28;20250;-69
2021/05/09 13:12:50;;;;;;;4.93;3.00;;;25.60;51.20;;;;;;5090261;28;20250;-69
2021/05/09 13:15:16;;;;;;;2.60;2.37;;;25.50;50.90;;;;;;5090605;28;20393;-69
2021/05/09 13:17:42;;;;;;;3.10;1.50;;;25.50;51.20;;;;;;5089583;28;20419;-69
2021/05/09 13:20:09;;;;;;;2.90;2.70;;;25.60;50.90;;;;;;5069772;28;20168;-69
2021/05/09 13:22:35;;;;;;;3.43;1.60;;;25.50;50.50;;;;;;5081538;28;20194;-69
2021/05/09 13:25:01;;;;;;;1.40;1.30;;;25.50;50.50;;;;;;5090020;28;20486;-69
2021/05/09 13:27:28;;;;;;;2.50;1.10;;;25.50;50.50;;;;;;5089735;28;20190;-69
2021/05/09 13:29:53;;;;;;;0.80;0.80;;;25.40;49.10;;;;;;5090259;28;20182;-69
2021/05/09 13:32:19;;;;;;;3.83;1.60;;;25.20;49.20;;;;;;5089588;28;20432;-69
2021/05/09 13:34:45;;;;;;;2.23;1.60;;;25.20;51.30;;;;;;5088658;28;20245;-69
2021/05/09 13:37:11;;;;;;;4.23;1.43;;;25.20;51.50;;;;;;5077536;28;20197;-66
2021/05/09 13:39:37;;;;;;;1.23;1.10;;;25.20;51.80;;;;;;5089964;28;20385;-66
2021/05/09 13:42:02;;;;;;;2.50;1.90;;;25.10;50.10;;;;;;5089221;28;20200;-66
2021/05/09 13:44:28;;;;;;;2.73;1.60;;;25.00;51.80;;;;;;5090253;28;20179;-69
2021/05/09 13:46:54;;;;;;;1.73;1.60;;;25.00;51.20;;;;;;5089228;28;20194;-69
2021/05/09 13:49:21;;;;;;;1.43;1.10;;;24.90;50.50;;;;;;5089598;28;20628;-69
2021/05/09 13:51:47;;;;;;;2.50;1.97;;;24.70;49.60;;;;;;5088059;28;20167;-69
2021/05/09 13:54:13;;;;;;;3.17;1.80;;;24.60;51.50;;;;;;5069184;28;20447;-69
2021/05/09 13:56:39;;;;;;;0.87;0.80;;;24.60;51.70;;;;;;5073110;28;20199;-69
2021/05/09 13:59:05;;;;;;;1.90;1.40;;;24.70;51.10;;;;;;5078666;28;20261;-69
2021/05/09 14:01:31;;;;;;;1.53;1.13;;;24.80;52.30;;;;;;5075850;28;20198;-69
2021/05/09 14:03:57;;;;;;;1.10;0.97;;;24.80;49.30;;;;;;5075755;28;20386;-68
2021/05/09 14:06:24;;;;;;;1.57;1.20;;;24.70;49.30;;;;;;5075445;28;20973;-69
2021/05/09 14:08:51;;;;;;;1.37;1.27;;;24.60;49.50;;;;;;5073941;28;20144;-66
2021/05/09 14:11:16;;;;;;;1.47;1.37;;;24.50;51.20;;;;;;5064651;28;20422;-68